Eishun — JD2292 — position and weather

sailwx.info

Track history (hours):
 
Tides and Currents Weather Stations Pressure Air Temp Water Temp Dewpoint Dewpoint Depression Visibility Wind Speed Wind Dir Waves Ship Positions

Eishun

Last reported at 2017-Sep-21 23:52 UTC. Time now 2017-Oct-18 11:21 UTC.
Position N 34°38' E 135°00'.
Warning: this ship's position is 26 days out of date.

Length 39 m; draft 4.2 m.

Type: Tug. MMSI: 431602341.

Date/timePositionNaut miles runAvg speedWind from/ knotsBaromVisibWave heightAir tempDewpointWater temp
2017-Sep-21 23:52N 34°38' E 135°00'514.8
2017-Sep-21 23:30N 34°35' E 135°06'611.8
2017-Sep-21 23:00N 34°34' E 135°13'612.8
2017-Sep-21 22:30N 34°33' E 135°21'3 6.3
2017-Sep-21 21:58N 34°31' E 135°24'0 0.2
2017-Sep-21 21:30N 34°32' E 135°25'1 2.2
2017-Sep-21 21:00N 34°32' E 135°24'2 4.7
2017-Sep-21 20:30N 34°33' E 135°21'2 4.6
2017-Sep-21 20:00N 34°33' E 135°18'0 0.6
2017-Sep-21 19:30N 34°33' E 135°18'0 0.1
2017-Sep-21 18:48N 34°33' E 135°18'0 0.0
2017-Sep-21 18:30N 34°33' E 135°18'0 0.0
2017-Sep-21 18:00N 34°33' E 135°18'0 0.0
2017-Sep-21 17:12N 34°33' E 135°18'0 0.0
2017-Sep-21 17:00N 34°33' E 135°18'0 0.0
2017-Sep-21 16:24N 34°33' E 135°18'0 0.0
2017-Sep-21 16:00N 34°33' E 135°18'0 0.0
2017-Sep-21 15:30N 34°33' E 135°18'0 0.0
2017-Sep-21 15:00N 34°33' E 135°18'0 0.3
2017-Sep-21 14:30N 34°33' E 135°18'0 0.3
2017-Sep-21 14:00N 34°33' E 135°18'2 3.7
2017-Sep-21 13:30N 34°31' E 135°17'2 3.8
2017-Sep-21 13:00N 34°30' E 135°15'3 6.0
2017-Sep-21 12:30N 34°29' E 135°12'3 6.1
2017-Sep-21 12:00N 34°27' E 135°09'3 6.7
2017-Sep-21 11:29N 34°25' E 135°06'3 7.0
2017-Sep-21 11:00N 34°22' E 135°03'8 7.4
2017-Sep-21 09:56N 34°15' E 134°59'3 6.1
2017-Sep-21 09:25N 34°12' E 134°60'2 4.0
2017-Sep-21 08:59N 34°10' E 134°60'4 6.9
2017-Sep-21 08:28N 34°06' E 134°60'236 4.8
2017-Sep-19 07:26N 35°03' E 139°38'2 4.8
2017-Sep-19 07:00N 35°05' E 139°40'2 5.0
2017-Sep-19 06:30N 35°06' E 139°42'3 5.5
2017-Sep-19 06:00N 35°08' E 139°44'2 4.9
2017-Sep-19 05:30N 35°11' E 139°45'1 2.8
2017-Sep-19 05:00N 35°12' E 139°45'2 3.1
2017-Sep-19 04:30N 35°14' E 139°46'3 5.3
2017-Sep-19 04:00N 35°16' E 139°46'3 5.2
2017-Sep-19 03:30N 35°18' E 139°44'3 5.8
2017-Sep-19 03:00N 35°21' E 139°42'3 5.5
2017-Sep-19 02:30N 35°24' E 139°43'3 5.7
2017-Sep-19 02:00N 35°26' E 139°45'3 6.4
2017-Sep-19 01:30N 35°28' E 139°48'3 6.4
2017-Sep-19 01:00N 35°30' E 139°51'3 6.2
2017-Sep-19 00:30N 35°32' E 139°53'3 5.8
2017-Sep-19 00:00N 35°35' E 139°55'0 0.6
2017-Sep-18 23:30N 35°35' E 139°55'0 0.3
2017-Sep-18 22:58N 35°35' E 139°55'0 0.0
2017-Sep-18 07:23N 35°35' E 139°55'0 0.0
2017-Sep-18 06:05N 35°35' E 139°55'0 0.0
2017-Sep-18 06:00N 35°35' E 139°55'0 0.0
2017-Sep-18 05:05N 35°35' E 139°55'0 0.0
2017-Sep-18 04:59N 35°35' E 139°55'0 0.0
2017-Sep-18 04:29N 35°35' E 139°55'0 0.0
2017-Sep-18 03:49N 35°35' E 139°55'0 0.0
2017-Sep-17 17:23N 35°35' E 139°55'0 0.1
2017-Sep-17 16:56N 35°35' E 139°55'0 0.1
2017-Sep-17 16:24N 35°35' E 139°55'0 0.0
2017-Sep-17 14:26N 35°35' E 139°55'0 0.0
2017-Sep-17 13:58N 35°35' E 139°55'0 0.0
2017-Sep-17 13:29N 35°35' E 139°55'0 0.0
2017-Sep-17 08:51N 35°35' E 139°55'0 0.0
2017-Sep-17 06:47N 35°35' E 139°55'0 0.0
2017-Sep-15 04:41N 35°35' E 139°55'0 0.0
2017-Sep-14 23:40N 35°35' E 139°55'0 0.7
2017-Sep-14 23:30N 35°35' E 139°55'0 0.0
2017-Sep-14 22:59N 35°35' E 139°55'0 0.0
2017-Sep-14 22:25N 35°35' E 139°55'0 0.0
2017-Sep-14 21:59N 35°35' E 139°55'0 0.0
2017-Sep-14 21:29N 35°35' E 139°55'0 0.0
2017-Sep-14 20:59N 35°35' E 139°55'0 0.0
2017-Sep-14 20:28N 35°35' E 139°55'0 0.0
2017-Sep-14 19:59N 35°35' E 139°55'0 0.0
2017-Sep-14 19:29N 35°35' E 139°55'0 0.0
2017-Sep-14 18:58N 35°35' E 139°55'0 0.0
2017-Sep-14 18:29N 35°35' E 139°55'0 0.0
2017-Sep-14 17:59N 35°35' E 139°55'0 0.0
2017-Sep-14 17:23N 35°35' E 139°55'0 0.0
2017-Sep-14 16:59N 35°35' E 139°55'0 0.0
2017-Sep-14 16:29N 35°35' E 139°55'0 0.0
2017-Sep-14 15:59N 35°35' E 139°55'0 0.0
2017-Sep-14 15:25N 35°35' E 139°55'0 0.0
2017-Sep-14 14:59N 35°35' E 139°55'0 0.0
2017-Sep-14 14:29N 35°35' E 139°55'0 0.0
2017-Sep-14 13:58N 35°35' E 139°55'0 0.0
2017-Sep-14 13:25N 35°35' E 139°55'0 0.0
2017-Sep-14 12:58N 35°35' E 139°55'0 0.0
2017-Sep-14 12:29N 35°35' E 139°55'0 0.0
2017-Sep-14 11:59N 35°35' E 139°55'0 0.0
2017-Sep-14 11:25N 35°35' E 139°55'0 0.0
2017-Sep-14 10:58N 35°35' E 139°55'0 0.0
2017-Sep-14 10:28N 35°35' E 139°55'0 0.0
2017-Sep-14 09:59N 35°35' E 139°55'0 0.0
2017-Sep-14 09:28N 35°35' E 139°55'0 0.0
2017-Sep-14 08:58N 35°35' E 139°55'0 0.0
2017-Sep-14 08:26N 35°35' E 139°55'0 0.0
2017-Sep-14 07:58N 35°35' E 139°55'0 0.1
2017-Sep-14 07:30N 35°35' E 139°55'0 0.2
2017-Sep-14 06:54N 35°35' E 139°55'1 2.4
2017-Sep-14 06:29N 35°35' E 139°56'3 6.0
2017-Sep-14 06:00N 35°33' E 139°55'3 6.1
2017-Sep-14 05:30N 35°30' E 139°53'3 6.1
2017-Sep-14 05:00N 35°28' E 139°50'3 5.9
2017-Sep-14 04:30N 35°25' E 139°48'3 5.8
2017-Sep-14 04:00N 35°23' E 139°46'2 4.7
2017-Sep-14 03:30N 35°21' E 139°45'3 5.5
2017-Sep-14 03:00N 35°18' E 139°45'3 6.0
2017-Sep-14 02:30N 35°16' E 139°47'3 5.2
2017-Sep-14 02:00N 35°13' E 139°47'2 5.0
2017-Sep-14 01:30N 35°11' E 139°47'2 4.8
2017-Sep-14 01:00N 35°08' E 139°46'1 2.2
2017-Sep-14 00:30N 35°07' E 139°46'1 1.8
2017-Sep-14 00:00N 35°06' E 139°46'3 5.3
2017-Sep-13 23:30N 35°04' E 139°44'3 6.3
2017-Sep-13 23:00N 35°01' E 139°43'4 6.8
2017-Sep-13 22:29N 34°58' E 139°41'  
Track history (hours):
 
Tides and Currents Weather Stations Pressure Air Temp Water Temp Dewpoint Dewpoint Depression Visibility Wind Speed Wind Dir Waves Ship Positions

Eishun

Last reported at 2017-Sep-21 23:52 UTC. Time now 2017-Oct-18 11:21 UTC.
Position N 34°38' E 135°00'.
Warning: this ship's position is 26 days out of date.

Length 39 m; draft 4.2 m.

Type: Tug. MMSI: 431602341.

Date/timePositionNaut miles runAvg speedWind from/ knotsBaromVisibWave heightAir tempDewpointWater temp
2017-Sep-21 23:52N 34°38' E 135°00'514.8
2017-Sep-21 23:30N 34°35' E 135°06'611.8
2017-Sep-21 23:00N 34°34' E 135°13'612.8
2017-Sep-21 22:30N 34°33' E 135°21'3 6.3
2017-Sep-21 21:58N 34°31' E 135°24'0 0.2
2017-Sep-21 21:30N 34°32' E 135°25'1 2.2
2017-Sep-21 21:00N 34°32' E 135°24'2 4.7
2017-Sep-21 20:30N 34°33' E 135°21'2 4.6
2017-Sep-21 20:00N 34°33' E 135°18'0 0.6
2017-Sep-21 19:30N 34°33' E 135°18'0 0.1
2017-Sep-21 18:48N 34°33' E 135°18'0 0.0
2017-Sep-21 18:30N 34°33' E 135°18'0 0.0
2017-Sep-21 18:00N 34°33' E 135°18'0 0.0
2017-Sep-21 17:12N 34°33' E 135°18'0 0.0
2017-Sep-21 17:00N 34°33' E 135°18'0 0.0
2017-Sep-21 16:24N 34°33' E 135°18'0 0.0
2017-Sep-21 16:00N 34°33' E 135°18'0 0.0
2017-Sep-21 15:30N 34°33' E 135°18'0 0.0
2017-Sep-21 15:00N 34°33' E 135°18'0 0.3
2017-Sep-21 14:30N 34°33' E 135°18'0 0.3
2017-Sep-21 14:00N 34°33' E 135°18'2 3.7
2017-Sep-21 13:30N 34°31' E 135°17'2 3.8
2017-Sep-21 13:00N 34°30' E 135°15'3 6.0
2017-Sep-21 12:30N 34°29' E 135°12'3 6.1
2017-Sep-21 12:00N 34°27' E 135°09'3 6.7
2017-Sep-21 11:29N 34°25' E 135°06'3 7.0
2017-Sep-21 11:00N 34°22' E 135°03'8 7.4
2017-Sep-21 09:56N 34°15' E 134°59'3 6.1
2017-Sep-21 09:25N 34°12' E 134°60'2 4.0
2017-Sep-21 08:59N 34°10' E 134°60'4 6.9
2017-Sep-21 08:28N 34°06' E 134°60'236 4.8
2017-Sep-19 07:26N 35°03' E 139°38'2 4.8
2017-Sep-19 07:00N 35°05' E 139°40'2 5.0
2017-Sep-19 06:30N 35°06' E 139°42'3 5.5
2017-Sep-19 06:00N 35°08' E 139°44'2 4.9
2017-Sep-19 05:30N 35°11' E 139°45'1 2.8
2017-Sep-19 05:00N 35°12' E 139°45'2 3.1
2017-Sep-19 04:30N 35°14' E 139°46'3 5.3
2017-Sep-19 04:00N 35°16' E 139°46'3 5.2
2017-Sep-19 03:30N 35°18' E 139°44'3 5.8
2017-Sep-19 03:00N 35°21' E 139°42'3 5.5
2017-Sep-19 02:30N 35°24' E 139°43'3 5.7
2017-Sep-19 02:00N 35°26' E 139°45'3 6.4
2017-Sep-19 01:30N 35°28' E 139°48'3 6.4
2017-Sep-19 01:00N 35°30' E 139°51'3 6.2
2017-Sep-19 00:30N 35°32' E 139°53'3 5.8
2017-Sep-19 00:00N 35°35' E 139°55'0 0.6
2017-Sep-18 23:30N 35°35' E 139°55'0 0.3
2017-Sep-18 22:58N 35°35' E 139°55'0 0.0
2017-Sep-18 07:23N 35°35' E 139°55'0 0.0
2017-Sep-18 06:05N 35°35' E 139°55'0 0.0
2017-Sep-18 06:00N 35°35' E 139°55'0 0.0
2017-Sep-18 05:05N 35°35' E 139°55'0 0.0
2017-Sep-18 04:59N 35°35' E 139°55'0 0.0
2017-Sep-18 04:29N 35°35' E 139°55'0 0.0
2017-Sep-18 03:49N 35°35' E 139°55'0 0.0
2017-Sep-17 17:23N 35°35' E 139°55'0 0.1
2017-Sep-17 16:56N 35°35' E 139°55'0 0.1
2017-Sep-17 16:24N 35°35' E 139°55'0 0.0
2017-Sep-17 14:26N 35°35' E 139°55'0 0.0
2017-Sep-17 13:58N 35°35' E 139°55'0 0.0
2017-Sep-17 13:29N 35°35' E 139°55'0 0.0
2017-Sep-17 08:51N 35°35' E 139°55'0 0.0
2017-Sep-17 06:47N 35°35' E 139°55'0 0.0
2017-Sep-15 04:41N 35°35' E 139°55'0 0.0
2017-Sep-14 23:40N 35°35' E 139°55'0 0.7
2017-Sep-14 23:30N 35°35' E 139°55'0 0.0
2017-Sep-14 22:59N 35°35' E 139°55'0 0.0
2017-Sep-14 22:25N 35°35' E 139°55'0 0.0
2017-Sep-14 21:59N 35°35' E 139°55'0 0.0
2017-Sep-14 21:29N 35°35' E 139°55'0 0.0
2017-Sep-14 20:59N 35°35' E 139°55'0 0.0
2017-Sep-14 20:28N 35°35' E 139°55'0 0.0
2017-Sep-14 19:59N 35°35' E 139°55'0 0.0
2017-Sep-14 19:29N 35°35' E 139°55'0 0.0
2017-Sep-14 18:58N 35°35' E 139°55'0 0.0
2017-Sep-14 18:29N 35°35' E 139°55'0 0.0
2017-Sep-14 17:59N 35°35' E 139°55'0 0.0
2017-Sep-14 17:23N 35°35' E 139°55'0 0.0
2017-Sep-14 16:59N 35°35' E 139°55'0 0.0
2017-Sep-14 16:29N 35°35' E 139°55'0 0.0
2017-Sep-14 15:59N 35°35' E 139°55'0 0.0
2017-Sep-14 15:25N 35°35' E 139°55'0 0.0
2017-Sep-14 14:59N 35°35' E 139°55'0 0.0
2017-Sep-14 14:29N 35°35' E 139°55'0 0.0
2017-Sep-14 13:58N 35°35' E 139°55'0 0.0
2017-Sep-14 13:25N 35°35' E 139°55'0 0.0
2017-Sep-14 12:58N 35°35' E 139°55'0 0.0
2017-Sep-14 12:29N 35°35' E 139°55'0 0.0
2017-Sep-14 11:59N 35°35' E 139°55'0 0.0
2017-Sep-14 11:25N 35°35' E 139°55'0 0.0
2017-Sep-14 10:58N 35°35' E 139°55'0 0.0
2017-Sep-14 10:28N 35°35' E 139°55'0 0.0
2017-Sep-14 09:59N 35°35' E 139°55'0 0.0
2017-Sep-14 09:28N 35°35' E 139°55'0 0.0
2017-Sep-14 08:58N 35°35' E 139°55'0 0.0
2017-Sep-14 08:26N 35°35' E 139°55'0 0.0
2017-Sep-14 07:58N 35°35' E 139°55'0 0.1
2017-Sep-14 07:30N 35°35' E 139°55'0 0.2
2017-Sep-14 06:54N 35°35' E 139°55'1 2.4
2017-Sep-14 06:29N 35°35' E 139°56'3 6.0
2017-Sep-14 06:00N 35°33' E 139°55'3 6.1
2017-Sep-14 05:30N 35°30' E 139°53'3 6.1
2017-Sep-14 05:00N 35°28' E 139°50'3 5.9
2017-Sep-14 04:30N 35°25' E 139°48'3 5.8
2017-Sep-14 04:00N 35°23' E 139°46'2 4.7
2017-Sep-14 03:30N 35°21' E 139°45'3 5.5
2017-Sep-14 03:00N 35°18' E 139°45'3 6.0
2017-Sep-14 02:30N 35°16' E 139°47'3 5.2
2017-Sep-14 02:00N 35°13' E 139°47'2 5.0
2017-Sep-14 01:30N 35°11' E 139°47'2 4.8
2017-Sep-14 01:00N 35°08' E 139°46'1 2.2
2017-Sep-14 00:30N 35°07' E 139°46'1 1.8
2017-Sep-14 00:00N 35°06' E 139°46'3 5.3
2017-Sep-13 23:30N 35°04' E 139°44'3 6.3
2017-Sep-13 23:00N 35°01' E 139°43'4 6.8
2017-Sep-13 22:29N 34°58' E 139°41'  

Dump ship's entire track history